METAR Formatted Surface Weather Observation
Issued by NWS

Home | Current Version | Previous Version | Text Only | Print | Product List | Glossary On
Versions: 1 2
855
SAUS46 KLOX 261507
MTRNZY
SPECI KNZY 261505Z 09004KT 10SM SCT023 BKN060 OVC070 11/09 A3002 RMK
AO2 T01060089 $



USA.gov is the U.S. government's official web portal to all federal, state and local government web resources and services.